Terminal Aerodrome Forecast
Issued by NWS Jacksonville, FL

Home | Current Version | Previous Version | Text Only | Print | Product List | Glossary On
Versions: 1 2 3 4 5 6 7 8 9 10 11 12 13 14 15 16 17 18 19 20 21 22 23 24 25 26
231
FTUS42 KJAX 191725
TAFJAX
TAF
KJAX 191725Z 1918/2018 03013G20KT P6SM BKN028
     FM192200 03010KT P6SM BKN025
      TEMPO 1922/2002 SCT025
     FM200200 02004KT P6SM SCT020
     FM201400 04010KT P6SM SCT025=

USA.gov is the U.S. government's official web portal to all federal, state and local government web resources and services.